Time;durP1;ratioP1;P1;durP2;ratioP2;P2;SDS_P1;SDS_P2;PMS_P1;PMS_P2;Temp;Humidity;BMP_temperature;BMP_pressure;BME280_temperature;BME280_humidity;BME280_pressure;Samples;Min_cycle;Max_cycle;Signal;HPM_P1;HPM_P2
2021/11/16 00:00:14;;;;;;;76.18;25.15;;;;;;;8.53;69.08;102706.78;5045512;28;20043;-71
2021/11/16 00:02:40;;;;;;;75.95;24.83;;;;;;;8.58;68.98;102712.19;5044046;28;21251;-70
2021/11/16 00:05:07;;;;;;;80.68;26.58;;;;;;;8.52;68.51;102710.19;5043939;28;20733;-71
2021/11/16 00:07:32;;;;;;;81.70;27.00;;;;;;;8.45;68.89;102702.88;5046773;28;20043;-71
2021/11/16 00:09:58;;;;;;;76.75;27.17;;;;;;;8.42;68.29;102705.31;5046329;28;20036;-70
2021/11/16 00:12:23;;;;;;;83.53;27.45;;;;;;;8.41;69.21;102699.25;5040216;28;20055;-72
2021/11/16 00:14:48;;;;;;;79.22;26.65;;;;;;;8.36;68.58;102689.41;5040212;28;20051;-70
2021/11/16 00:17:14;;;;;;;76.03;26.75;;;;;;;8.37;68.56;102693.78;5045736;28;20569;-70
2021/11/16 00:19:40;;;;;;;81.53;26.58;;;;;;;8.27;68.60;102689.81;5051850;28;20047;-71
2021/11/16 00:22:07;;;;;;;81.10;27.38;;;;;;;8.25;68.77;102688.81;5046263;28;20067;-72
2021/11/16 00:24:47;;;;;;;81.50;26.90;;;;;;;8.29;69.36;102689.91;5055210;28;20051;-71
2021/11/16 00:27:12;;;;;;;77.05;27.05;;;;;;;8.31;69.56;102689.19;5037757;28;20048;-71
2021/11/16 00:29:38;;;;;;;71.22;25.60;;;;;;;8.25;69.13;102683.63;5054598;28;20083;-71
2021/11/16 00:32:06;;;;;;;75.82;26.02;;;;;;;8.20;68.37;102681.59;5046530;28;20048;-72
2021/11/16 00:34:31;;;;;;;70.60;26.25;;;;;;;8.15;68.18;102686.56;5052997;28;20039;-72
2021/11/16 00:36:57;;;;;;;76.03;25.38;;;;;;;8.10;68.33;102678.56;5025787;28;20060;-71
2021/11/16 00:39:22;;;;;;;77.13;26.77;;;;;;;8.07;68.46;102683.56;5051356;28;20052;-70
2021/11/16 00:41:47;;;;;;;75.53;26.40;;;;;;;8.13;68.69;102672.59;5047435;28;20101;-71
2021/11/16 00:44:13;;;;;;;82.18;27.38;;;;;;;8.14;69.35;102669.19;5051094;28;20101;-70
2021/11/16 00:46:38;;;;;;;76.47;27.27;;;;;;;8.17;68.99;102671.97;5049807;28;20082;-71
2021/11/16 00:49:03;;;;;;;75.35;26.27;;;;;;;8.13;69.62;102668.31;5037574;28;20079;-70
2021/11/16 00:51:29;;;;;;;72.10;26.13;;;;;;;7.90;68.19;102668.81;5047067;28;20055;-70
2021/11/16 00:53:55;;;;;;;75.15;25.30;;;;;;;7.93;68.47;102660.31;5049322;28;20036;-70
2021/11/16 00:56:20;;;;;;;72.05;25.33;;;;;;;8.08;69.27;102666.28;5040698;28;20155;-70
2021/11/16 00:58:46;;;;;;;67.80;25.05;;;;;;;8.19;68.38;102679.81;5046009;28;20054;-72
2021/11/16 01:01:11;;;;;;;74.45;25.00;;;;;;;8.15;67.88;102676.19;5047790;28;20048;-71
2021/11/16 01:03:36;;;;;;;67.03;24.27;;;;;;;8.11;68.20;102692.44;5046913;28;20024;-71
2021/11/16 01:06:02;;;;;;;70.32;25.42;;;;;;;8.14;68.10;102687.38;5046473;28;20111;-70
2021/11/16 01:08:28;;;;;;;69.38;25.05;;;;;;;8.12;67.79;102686.41;5058102;27;20062;-71
2021/11/16 01:10:54;;;;;;;68.63;24.75;;;;;;;8.07;67.85;102688.75;5036907;28;20044;-70
2021/11/16 01:13:20;;;;;;;75.00;25.75;;;;;;;8.15;67.51;102691.78;5048257;28;20051;-71
2021/11/16 01:15:48;;;;;;;67.70;24.23;;;;;;;8.11;67.40;102688.09;5044530;28;20496;-72
2021/11/16 01:18:14;;;;;;;69.53;24.58;;;;;;;8.11;68.18;102689.84;5041838;28;20044;-70
2021/11/16 01:20:41;;;;;;;69.57;25.20;;;;;;;8.10;67.81;102693.25;5040305;28;21122;-71
2021/11/16 01:23:09;;;;;;;71.07;25.17;;;;;;;8.10;68.12;102682.84;5047507;28;20050;-71
2021/11/16 01:25:37;;;;;;;70.15;25.40;;;;;;;8.11;68.46;102682.91;5043740;28;20084;-70
2021/11/16 01:28:10;;;;;;;76.47;26.05;;;;;;;8.12;67.75;102681.19;5052583;28;20189;-71
2021/11/16 01:30:37;;;;;;;69.38;25.50;;;;;;;7.96;68.83;102679.53;5044710;28;20036;-71
2021/11/16 01:35:29;;;;;;;73.50;26.20;;;;;;;7.96;69.79;102678.63;5046876;28;20063;-70
2021/11/16 01:37:54;;;;;;;81.88;26.10;;;;;;;7.97;69.61;102676.13;5052225;28;20064;-71
2021/11/16 01:40:20;;;;;;;74.88;26.08;;;;;;;7.95;69.63;102677.72;5041748;28;22041;-70
2021/11/16 01:42:48;;;;;;;78.90;26.25;;;;;;;7.98;69.76;102671.81;5058972;27;20086;-72
2021/11/16 01:45:15;;;;;;;71.25;25.42;;;;;;;8.04;69.73;102666.94;5054099;28;20040;-72
2021/11/16 01:47:43;;;;;;;75.22;26.15;;;;;;;7.93;70.50;102668.97;5046768;28;20047;-71
2021/11/16 01:50:09;;;;;;;78.70;26.30;;;;;;;7.89;70.51;102672.22;5037582;28;20056;-71
2021/11/16 01:52:34;;;;;;;80.47;26.25;;;;;;;7.92;70.68;102667.19;5046864;28;20616;-71
2021/11/16 01:54:59;;;;;;;74.60;25.38;;;;;;;7.96;70.83;102661.34;5045673;28;20338;-71
2021/11/16 01:57:26;;;;;;;72.32;24.70;;;;;;;7.94;70.82;102665.56;5045372;28;20051;-70
2021/11/16 01:59:52;;;;;;;76.97;25.42;;;;;;;7.96;70.81;102661.34;5048495;28;20062;-70
2021/11/16 02:02:17;;;;;;;73.03;24.55;;;;;;;7.96;70.83;102665.66;5052077;28;20066;-70
2021/11/16 02:04:43;;;;;;;72.10;24.75;;;;;;;7.94;70.67;102657.75;5043520;28;20056;-70
2021/11/16 02:07:08;;;;;;;72.82;24.75;;;;;;;7.90;70.70;102649.75;5047960;28;20086;-70
2021/11/16 02:09:34;;;;;;;78.60;25.02;;;;;;;7.93;70.57;102650.78;5046431;28;20036;-70
2021/11/16 02:12:00;;;;;;;74.22;25.60;;;;;;;7.97;70.77;102644.06;5044085;28;20047;-70
2021/11/16 02:14:26;;;;;;;66.35;24.48;;;;;;;7.95;69.50;102643.97;5049716;28;20040;-72
2021/11/16 02:16:52;;;;;;;68.18;24.35;;;;;;;7.89;69.11;102642.75;5047387;27;20043;-69
2021/11/16 02:19:20;;;;;;;65.47;24.50;;;;;;;7.87;68.85;102640.06;5045436;28;20054;-70
2021/11/16 02:21:47;;;;;;;69.65;24.80;;;;;;;7.89;70.89;102633.25;5040028;28;20078;-71
2021/11/16 02:24:14;;;;;;;74.43;24.88;;;;;;;7.89;70.76;102630.66;5043341;28;20123;-71
2021/11/16 02:26:42;;;;;;;74.13;25.13;;;;;;;7.86;70.08;102635.72;5045354;28;20507;-70
2021/11/16 02:29:08;;;;;;;75.72;25.40;;;;;;;7.88;71.03;102627.97;5040529;28;20062;-70
2021/11/16 02:31:34;;;;;;;72.68;25.35;;;;;;;7.87;69.99;102631.41;5041256;28;20052;-69
2021/11/16 02:34:00;;;;;;;71.47;25.20;;;;;;;7.84;69.15;102623.44;5040736;28;20133;-71
2021/11/16 02:36:30;;;;;;;72.32;25.25;;;;;;;7.80;69.46;102622.41;5047743;28;20036;-69
2021/11/16 02:38:55;;;;;;;75.07;25.20;;;;;;;7.84;69.49;102616.56;5032759;28;20488;-70
2021/11/16 02:41:22;;;;;;;74.03;26.25;;;;;;;7.80;69.45;102614.63;5047475;28;20044;-70
2021/11/16 02:43:49;;;;;;;76.22;25.45;;;;;;;7.83;70.00;102614.78;5030204;28;20056;-70
2021/11/16 02:46:14;;;;;;;72.35;24.27;;;;;;;7.88;70.12;102621.09;5024257;28;20040;-71
2021/11/16 02:48:42;;;;;;;68.95;25.55;;;;;;;7.88;69.08;102615.91;5043010;28;20056;-71
2021/11/16 02:51:11;;;;;;;71.50;24.45;;;;;;;7.85;69.15;102614.84;5013936;28;20508;-70
2021/11/16 02:53:38;;;;;;;68.75;24.73;;;;;;;7.87;69.20;102623.63;5045794;28;20051;-70
2021/11/16 02:56:07;;;;;;;68.53;23.77;;;;;;;7.84;69.30;102619.16;5042145;28;20319;-71
2021/11/16 02:58:33;;;;;;;71.25;25.10;;;;;;;7.85;69.37;102620.94;5041418;28;20058;-71
2021/11/16 03:01:04;;;;;;;70.47;25.08;;;;;;;7.91;69.33;102625.56;5029154;28;20045;-72
2021/11/16 03:03:30;;;;;;;68.82;23.90;;;;;;;7.93;69.10;102627.41;5028858;28;20044;-71
2021/11/16 03:05:56;;;;;;;60.25;22.23;;;;;;;7.76;68.20;102620.44;5032197;28;20077;-70
2021/11/16 03:08:25;;;;;;;61.47;22.58;;;;;;;7.83;68.00;102617.38;5041157;28;20037;-70
2021/11/16 03:10:54;;;;;;;67.63;23.55;;;;;;;7.90;68.41;102615.97;5032388;28;20048;-70
2021/11/16 03:13:20;;;;;;;62.63;22.13;;;;;;;7.91;69.50;102620.38;5047579;28;20385;-69
2021/11/16 03:15:46;;;;;;;64.28;22.10;;;;;;;7.93;68.90;102622.22;5031662;28;20036;-70
2021/11/16 03:18:11;;;;;;;58.92;21.00;;;;;;;7.93;68.88;102613.56;5033187;28;20350;-70
2021/11/16 03:20:37;;;;;;;57.63;20.98;;;;;;;7.96;67.91;102622.38;5035365;28;20055;-70
2021/11/16 03:23:13;;;;;;;57.17;20.90;;;;;;;7.97;67.07;102618.97;5030480;28;20993;-70
2021/11/16 03:25:46;;;;;;;55.70;20.75;;;;;;;8.02;67.23;102621.81;5044442;28;20046;-71
2021/11/16 03:28:12;;;;;;;64.15;22.52;;;;;;;8.03;67.16;102615.81;5042011;28;20043;-70
2021/11/16 03:30:38;;;;;;;56.28;21.77;;;;;;;8.00;66.49;102620.81;5037214;28;20037;-70
2021/11/16 03:33:04;;;;;;;59.60;22.35;;;;;;;8.01;68.69;102612.22;5034115;28;20239;-70
2021/11/16 03:35:30;;;;;;;63.97;22.73;;;;;;;7.97;68.38;102616.38;5020910;28;20136;-70
2021/11/16 03:37:58;;;;;;;66.03;22.80;;;;;;;7.97;68.44;102613.78;5045269;28;20036;-71
2021/11/16 03:40:25;;;;;;;62.65;22.95;;;;;;;7.95;67.92;102619.69;5055908;28;20067;-71
2021/11/16 03:42:52;;;;;;;68.68;23.92;;;;;;;7.93;68.63;102619.63;5026675;28;20067;-71
2021/11/16 03:45:25;;;;;;;71.10;24.27;;;;;;;7.91;69.05;102616.06;5054832;28;20511;-70
2021/11/16 03:47:51;;;;;;;68.25;23.98;;;;;;;7.92;67.72;102628.25;5048177;28;20159;-71
2021/11/16 03:50:19;;;;;;;67.85;22.63;;;;;;;7.90;67.41;102632.47;5050178;28;20039;-69
2021/11/16 03:52:49;;;;;;;68.18;23.23;;;;;;;7.87;69.05;102629.69;5043668;28;20044;-70
2021/11/16 03:55:15;;;;;;;65.90;23.70;;;;;;;7.90;68.15;102628.97;5050636;28;20135;-70
2021/11/16 03:57:40;;;;;;;64.85;22.98;;;;;;;7.87;67.61;102627.09;5050116;28;20040;-70
2021/11/16 04:00:10;;;;;;;69.50;24.10;;;;;;;7.84;67.76;102631.25;5051933;28;20511;-70
2021/11/16 04:02:35;;;;;;;65.70;22.98;;;;;;;7.93;67.61;102634.34;5036215;28;20110;-71
2021/11/16 04:05:03;;;;;;;62.28;22.55;;;;;;;7.91;67.99;102629.06;5046366;28;20693;-70
2021/11/16 04:07:28;;;;;;;66.22;23.13;;;;;;;7.89;67.93;102632.38;5048855;28;20467;-70
2021/11/16 04:09:54;;;;;;;65.45;23.27;;;;;;;7.81;67.91;102634.56;5026715;28;20046;-70
2021/11/16 04:12:19;;;;;;;64.95;22.80;;;;;;;7.80;68.42;102640.59;5050681;28;20040;-70
2021/11/16 04:14:45;;;;;;;64.43;22.98;;;;;;;7.80;68.54;102647.47;5036007;28;20044;-70
2021/11/16 04:17:10;;;;;;;65.80;23.95;;;;;;;7.84;69.18;102642.53;5041961;28;20722;-69
2021/11/16 04:19:36;;;;;;;64.63;23.13;;;;;;;7.92;68.74;102642.94;5041879;28;20172;-70
2021/11/16 04:22:02;;;;;;;66.18;22.17;;;;;;;7.92;68.61;102645.53;5052840;28;20047;-70
2021/11/16 04:24:27;;;;;;;66.88;23.02;;;;;;;7.93;68.70;102636.94;5033047;28;20131;-71
2021/11/16 04:26:53;;;;;;;62.97;22.50;;;;;;;7.92;68.15;102638.63;5045739;28;20028;-70
2021/11/16 04:29:18;;;;;;;70.03;22.75;;;;;;;7.84;68.03;102633.84;5036305;28;20040;-70
2021/11/16 04:31:44;;;;;;;64.60;23.10;;;;;;;7.81;68.19;102637.16;5051295;28;20974;-71
2021/11/16 04:34:10;;;;;;;64.82;23.40;;;;;;;7.81;67.82;102631.97;5048682;28;20336;-70
2021/11/16 04:36:37;;;;;;;60.70;22.48;;;;;;;7.78;68.10;102634.41;5047195;28;20067;-70
2021/11/16 04:39:04;;;;;;;67.00;23.85;;;;;;;7.74;68.15;102635.06;5042788;28;20874;-70
2021/11/16 04:41:30;;;;;;;66.00;22.77;;;;;;;7.58;67.71;102633.34;5038840;28;20888;-71
2021/11/16 04:43:58;;;;;;;61.92;22.73;;;;;;;7.65;67.84;102635.47;5031385;28;20119;-70
2021/11/16 04:46:25;;;;;;;64.78;22.08;;;;;;;7.76;67.92;102636.03;5032887;28;20040;-71
2021/11/16 04:48:59;;;;;;;62.50;22.50;;;;;;;7.72;67.83;102632.38;5039438;28;20043;-71
2021/11/16 05:02:33;;;;;;;61.90;21.40;;;;;;;7.82;68.11;102625.97;5039676;28;20050;-70
2021/11/16 05:02:43;;;;;;;58.65;20.48;;;;;;;7.85;67.87;102613.16;5035779;28;20051;-70
2021/11/16 05:05:13;;;;;;;60.22;22.30;;;;;;;7.80;67.77;102618.94;5033486;28;20048;-70
2021/11/16 05:07:50;;;;;;;59.10;21.55;;;;;;;7.79;67.31;102611.94;5027087;28;20363;-70
2021/11/16 05:10:15;;;;;;;61.25;21.25;;;;;;;7.82;67.99;102610.38;5039590;28;20036;-70
2021/11/16 05:12:41;;;;;;;56.85;20.33;;;;;;;7.91;67.56;102618.66;5049763;28;20032;-70
2021/11/16 05:15:14;;;;;;;58.47;20.33;;;;;;;7.92;67.55;102609.19;5030876;28;20051;-70
2021/11/16 05:17:40;;;;;;;54.30;19.80;;;;;;;7.92;67.46;102603.97;5047122;28;20048;-70
2021/11/16 05:20:06;;;;;;;61.47;20.35;;;;;;;7.90;67.58;102603.00;5024062;28;20059;-71
2021/11/16 05:22:31;;;;;;;52.42;19.58;;;;;;;7.86;66.72;102607.16;5034564;28;20047;-71
2021/11/16 05:24:57;;;;;;;51.50;18.65;;;;;;;7.72;66.42;102609.03;5038454;28;20861;-71
2021/11/16 05:27:22;;;;;;;53.95;18.15;;;;;;;7.77;66.89;102597.97;5042471;28;21573;-71
2021/11/16 05:29:48;;;;;;;50.25;18.13;;;;;;;7.77;67.18;102595.38;5027103;28;20039;-71
2021/11/16 05:32:13;;;;;;;49.92;18.10;;;;;;;7.80;67.95;102605.94;5040690;28;21010;-70
2021/11/16 05:34:39;;;;;;;53.40;18.85;;;;;;;7.78;68.26;102602.38;5046870;28;20047;-72
2021/11/16 05:37:05;;;;;;;51.35;19.20;;;;;;;7.78;69.03;102611.03;5028434;28;20108;-70
2021/11/16 05:39:30;;;;;;;47.55;17.42;;;;;;;7.78;67.47;102610.16;5042227;28;20032;-70
2021/11/16 05:41:56;;;;;;;51.70;18.60;;;;;;;7.75;67.16;102603.97;5051928;28;20039;-70
2021/11/16 05:44:21;;;;;;;51.35;18.88;;;;;;;7.84;67.04;102607.88;5038873;28;20033;-70
2021/11/16 05:46:46;;;;;;;56.95;19.42;;;;;;;7.84;66.89;102610.47;5036737;28;20037;-70
2021/11/16 05:49:12;;;;;;;51.90;18.60;;;;;;;7.84;67.33;102606.19;5027054;28;20923;-70
2021/11/16 05:51:37;;;;;;;57.67;20.10;;;;;;;7.84;67.80;102598.38;5041668;28;20048;-70
2021/11/16 05:54:03;;;;;;;53.88;19.50;;;;;;;7.84;68.32;102605.28;5036970;28;20288;-70
2021/11/16 05:56:37;;;;;;;49.15;18.27;;;;;;;7.83;68.00;102601.78;5042314;28;20432;-70
2021/11/16 05:59:03;;;;;;;56.70;19.08;;;;;;;7.83;68.37;102601.78;5036469;28;20366;-70
2021/11/16 06:01:32;;;;;;;50.40;18.60;;;;;;;7.83;67.89;102606.97;5019952;28;20884;-70
2021/11/16 06:03:58;;;;;;;52.63;18.98;;;;;;;7.85;68.43;102605.38;5031970;28;20642;-70
2021/11/16 06:06:31;;;;;;;53.33;18.92;;;;;;;7.86;68.88;102596.78;5049254;28;21446;-70
2021/11/16 06:08:59;;;;;;;57.88;19.75;;;;;;;7.87;67.29;102605.47;5025151;28;20027;-70
2021/11/16 06:11:25;;;;;;;56.20;19.77;;;;;;;7.85;67.87;102599.28;5026740;28;20048;-70
2021/11/16 06:13:52;;;;;;;58.90;20.52;;;;;;;7.87;67.65;102592.47;5038010;28;20062;-70
2021/11/16 06:16:18;;;;;;;63.30;21.02;;;;;;;7.84;68.02;102595.78;5032432;28;20043;-70
2021/11/16 06:18:54;;;;;;;65.32;21.98;;;;;;;7.83;68.15;102588.81;5022438;28;20052;-71
2021/11/16 06:21:21;;;;;;;68.07;22.15;;;;;;;7.82;68.29;102596.50;5034447;28;20716;-70
2021/11/16 06:23:46;;;;;;;64.68;21.55;;;;;;;7.85;68.39;102592.38;5020402;28;20091;-70
2021/11/16 06:26:12;;;;;;;66.03;22.52;;;;;;;7.82;69.16;102587.00;5046003;28;20045;-70
2021/11/16 06:28:38;;;;;;;66.25;22.50;;;;;;;7.82;68.78;102588.72;5038671;28;20036;-70
2021/11/16 06:31:03;;;;;;;64.30;21.88;;;;;;;7.81;69.26;102585.22;5007244;28;20503;-70
2021/11/16 06:33:29;;;;;;;61.33;21.85;;;;;;;7.72;67.82;102590.84;5050846;28;20040;-71
2021/11/16 06:35:54;;;;;;;64.30;21.63;;;;;;;7.69;66.34;102582.88;5046711;28;20039;-70
2021/11/16 06:38:20;;;;;;;62.60;21.30;;;;;;;7.68;68.87;102585.44;5046336;28;20048;-70
2021/11/16 06:40:48;;;;;;;59.80;20.30;;;;;;;7.70;67.10;102586.38;5028400;28;20036;-73
2021/11/16 06:43:27;;;;;;;60.30;21.30;;;;;;;7.68;68.33;102588.88;5044625;28;20399;-72
2021/11/16 06:45:54;;;;;;;58.22;21.50;;;;;;;7.72;67.89;102585.66;5014477;28;20035;-70
2021/11/16 06:48:20;;;;;;;65.47;21.60;;;;;;;7.73;67.70;102581.38;5026028;28;20062;-70
2021/11/16 06:50:46;;;;;;;62.70;21.23;;;;;;;7.71;67.66;102593.38;5043721;28;20127;-72
2021/11/16 06:53:12;;;;;;;61.45;20.45;;;;;;;7.71;68.92;102581.28;5031352;28;20212;-71
2021/11/16 06:55:38;;;;;;;68.78;21.83;;;;;;;7.72;69.15;102583.06;5035331;28;20044;-71
2021/11/16 06:58:04;;;;;;;69.13;22.92;;;;;;;7.73;69.08;102581.38;5039084;28;20048;-70
2021/11/16 07:00:32;;;;;;;68.03;21.80;;;;;;;7.76;68.62;102584.09;5048145;28;20035;-71
2021/11/16 07:02:58;;;;;;;69.82;21.55;;;;;;;7.83;68.35;102580.13;5030725;28;20055;-70
2021/11/16 07:05:25;;;;;;;62.42;21.00;;;;;;;7.75;68.43;102582.31;5047715;28;20741;-70
2021/11/16 07:07:50;;;;;;;62.20;20.75;;;;;;;7.75;67.08;102584.91;5040102;28;20431;-70
2021/11/16 07:10:22;;;;;;;65.35;21.60;;;;;;;7.73;68.43;102584.84;5029188;28;20040;-71
2021/11/16 07:12:48;;;;;;;63.60;20.63;;;;;;;7.79;68.32;102583.38;5008227;28;20056;-71
2021/11/16 07:15:13;;;;;;;60.85;22.38;;;;;;;7.81;67.75;102581.78;5041550;28;20508;-70
2021/11/16 07:17:39;;;;;;;67.43;19.67;;;;;;;7.86;67.38;102573.41;5029317;28;20059;-70
2021/11/16 07:20:06;;;;;;;60.75;20.90;;;;;;;7.83;66.76;102581.00;5019345;28;20681;-71
2021/11/16 07:22:32;;;;;;;63.15;20.65;;;;;;;7.83;66.86;102580.13;5025574;28;20046;-70
2021/11/16 07:25:02;;;;;;;60.20;20.40;;;;;;;7.80;66.65;102578.28;5028535;28;20040;-70
2021/11/16 07:27:38;;;;;;;62.80;20.75;;;;;;;7.77;66.67;102574.63;5032363;28;20045;-71
2021/11/16 07:30:08;;;;;;;64.88;21.05;;;;;;;7.75;66.77;102579.72;5012900;28;20062;-71
2021/11/16 07:32:45;;;;;;;57.90;19.75;;;;;;;7.75;65.94;102585.81;5016926;28;20131;-71
2021/11/16 07:35:12;;;;;;;55.70;19.35;;;;;;;7.75;65.52;102585.81;5031741;28;20058;-71
2021/11/16 07:37:39;;;;;;;56.28;19.08;;;;;;;7.72;66.94;102585.66;5045396;28;20040;-71
2021/11/16 07:40:10;;;;;;;55.83;20.13;;;;;;;7.70;66.12;102582.09;5044337;28;20156;-70
2021/11/16 07:42:51;;;;;;;53.13;19.15;;;;;;;7.63;66.21;102585.16;5019659;28;20072;-70
2021/11/16 07:45:19;;;;;;;55.88;19.00;;;;;;;7.74;66.70;102576.22;5040017;28;20051;-70
2021/11/16 07:47:51;;;;;;;54.72;18.75;;;;;;;7.77;67.01;102580.69;5029183;28;20413;-70
2021/11/16 07:50:37;;;;;;;56.85;19.40;;;;;;;7.79;67.14;102585.97;5020819;28;20040;-71
2021/11/16 07:53:20;;;;;;;54.58;19.48;;;;;;;7.83;66.43;102593.09;5031810;28;21345;-70
2021/11/16 07:56:09;;;;;;;56.05;19.75;;;;;;;7.82;67.85;102588.72;5036152;28;20137;-73
2021/11/16 07:58:47;;;;;;;55.90;18.92;;;;;;;7.85;68.88;102586.28;5032831;28;20044;-70
2021/11/16 08:01:27;;;;;;;55.55;19.90;;;;;;;7.76;67.99;102586.69;4997336;28;20055;-71
2021/11/16 08:03:59;;;;;;;59.03;19.52;;;;;;;7.78;67.93;102581.59;5046379;28;20123;-69
2021/11/16 08:06:33;;;;;;;55.70;19.65;;;;;;;7.81;67.80;102579.16;5023968;28;20040;-71
2021/11/16 08:09:13;;;;;;;;;;;;;;;7.89;68.16;102578.72;5028208;28;20047;-69
2021/11/16 08:11:44;;;;;;;53.80;18.70;;;;;;;7.88;68.47;102579.53;5033686;28;20335;-69
2021/11/16 08:14:16;;;;;;;57.05;19.35;;;;;;;7.88;69.19;102579.53;5033349;28;20036;-70
2021/11/16 08:16:53;;;;;;;56.22;19.83;;;;;;;7.93;68.73;102575.47;5044112;28;20044;-70
2021/11/16 08:19:22;;;;;;;53.65;19.08;;;;;;;7.97;67.32;102576.53;5041748;28;20646;-71
2021/11/16 08:21:54;;;;;;;56.97;19.20;;;;;;;8.03;67.12;102577.75;5053974;28;20055;-71
2021/11/16 08:24:19;;;;;;;57.13;19.75;;;;;;;8.03;67.70;102561.25;5030020;28;20039;-71
2021/11/16 08:26:48;;;;;;;51.13;19.00;;;;;;;8.04;67.65;102561.34;5038758;28;20404;-71
2021/11/16 08:29:16;;;;;;;55.28;19.17;;;;;;;7.85;66.95;102569.00;5029150;28;20146;-70
2021/11/16 08:32:01;;;;;;;57.55;19.55;;;;;;;7.95;66.21;102563.47;5027876;28;20066;-70
2021/11/16 08:34:34;;;;;;;55.42;19.40;;;;;;;7.97;68.08;102559.25;5032687;28;20698;-71
2021/11/16 08:37:00;;;;;;;58.03;21.07;;;;;;;7.91;66.93;102565.84;5027717;28;20589;-70
2021/11/16 08:39:40;;;;;;;51.35;18.88;;;;;;;7.89;66.73;102564.84;5035363;28;20040;-70
2021/11/16 08:42:10;;;;;;;50.95;18.58;;;;;;;7.99;66.67;102562.78;5030608;28;20052;-70
2021/11/16 08:44:48;;;;;;;48.35;18.10;;;;;;;8.07;65.63;102561.47;5017798;28;21006;-70
2021/11/16 08:47:15;;;;;;;52.53;19.45;;;;;;;8.11;66.20;102563.41;5044157;28;20747;-71
2021/11/16 08:49:42;;;;;;;47.60;18.02;;;;;;;8.07;65.05;102561.47;5041105;28;20044;-71
2021/11/16 08:52:17;;;;;;;49.40;18.73;;;;;;;8.17;65.37;102561.97;5034068;28;20920;-70
2021/11/16 08:55:00;;;;;;;52.30;18.20;;;;;;;8.25;65.07;102558.00;5031923;28;20044;-70
2021/11/16 08:57:28;;;;;;;50.35;19.23;;;;;;;8.25;66.04;102563.22;5053244;28;20562;-70
2021/11/16 08:59:54;;;;;;;53.15;19.30;;;;;;;8.34;66.02;102562.00;5034778;28;20051;-70
2021/11/16 09:02:22;;;;;;;52.85;19.10;;;;;;;8.31;65.56;102551.44;5034767;28;20492;-70
2021/11/16 09:04:48;;;;;;;56.08;19.88;;;;;;;8.29;65.65;102553.06;5029025;28;20044;-72
2021/11/16 09:07:29;;;;;;;57.50;21.10;;;;;;;8.18;65.98;102551.63;5049454;28;20054;-70
2021/11/16 09:10:03;;;;;;;57.85;20.63;;;;;;;8.19;66.46;102557.72;5032632;28;20266;-70
2021/11/16 09:12:42;;;;;;;52.90;19.73;;;;;;;8.12;65.88;102554.81;5042109;28;20426;-71
2021/11/16 09:15:11;;;;;;;50.80;18.52;;;;;;;7.98;66.52;102545.47;5024635;28;20167;-71
2021/11/16 09:17:37;;;;;;;52.28;20.13;;;;;;;8.04;66.35;102542.28;5025632;28;20055;-68
2021/11/16 09:20:15;;;;;;;57.38;21.48;;;;;;;7.99;66.89;102547.22;5032556;28;20032;-70
2021/11/16 09:22:42;;;;;;;59.58;21.02;;;;;;;8.05;67.05;102554.44;5038710;28;20670;-69
2021/11/16 09:25:26;;;;;;;52.13;19.02;;;;;;;8.07;66.24;102558.88;5024035;28;20609;-70
2021/11/16 09:28:05;;;;;;;53.95;18.40;;;;;;;8.14;65.50;102562.69;5027533;28;20095;-70
2021/11/16 09:30:34;;;;;;;55.90;19.58;;;;;;;8.14;65.82;102558.38;5033755;28;20040;-71
2021/11/16 09:33:06;;;;;;;60.75;20.50;;;;;;;8.21;66.39;102550.91;5039526;28;20036;-70
2021/11/16 09:35:47;;;;;;;56.60;20.23;;;;;;;8.19;66.50;102556.00;5014639;28;20523;-70
2021/11/16 09:38:14;;;;;;;57.10;20.00;;;;;;;8.21;65.93;102556.09;5044889;28;20044;-71
2021/11/16 09:40:39;;;;;;;56.17;20.20;;;;;;;8.26;65.83;102560.69;5037155;28;20090;-69
2021/11/16 09:43:05;;;;;;;52.58;19.33;;;;;;;8.32;65.68;102552.34;4998568;28;20536;-71
2021/11/16 09:45:33;;;;;;;46.85;18.60;;;;;;;8.37;65.08;102554.34;5029262;28;20045;-72
2021/11/16 09:48:01;;;;;;;50.00;18.52;;;;;;;8.33;66.30;102549.84;5014975;28;20040;-70
2021/11/16 09:50:27;;;;;;;52.70;19.13;;;;;;;8.30;64.59;102536.66;5009337;28;20555;-70
2021/11/16 09:52:55;;;;;;;54.70;19.30;;;;;;;8.31;64.54;102535.84;5012554;28;20036;-70
2021/11/16 09:55:29;;;;;;;53.35;19.00;;;;;;;8.33;65.13;102541.13;5029367;28;20048;-69
2021/11/16 09:57:56;;;;;;;51.28;18.05;;;;;;;8.37;64.21;102543.97;5003859;28;20108;-70
2021/11/16 10:00:26;;;;;;;55.80;19.33;;;;;;;8.44;65.00;102539.94;5024906;28;20048;-72
2021/11/16 10:03:04;;;;;;;57.42;19.67;;;;;;;8.45;65.64;102541.72;4997836;28;20076;-70
2021/11/16 10:05:32;;;;;;;51.20;19.20;;;;;;;8.47;65.93;102543.59;5027266;28;20040;-70
2021/11/16 10:08:00;;;;;;;52.25;19.45;;;;;;;8.38;66.14;102540.53;5020411;28;20517;-70
2021/11/16 10:10:28;;;;;;;51.42;19.85;;;;;;;8.29;64.95;102529.69;5005053;28;20032;-70
2021/11/16 10:12:56;;;;;;;52.90;19.40;;;;;;;8.22;65.45;102524.09;5016855;28;20047;-70
2021/11/16 10:15:31;;;;;;;54.40;19.60;;;;;;;8.31;65.54;102521.97;5026181;28;20985;-69
2021/11/16 10:17:57;;;;;;;55.72;19.83;;;;;;;8.37;65.38;102522.28;5006474;28;20075;-70
2021/11/16 10:20:29;;;;;;;61.80;19.67;;;;;;;8.46;66.16;102520.13;5028545;28;20148;-70
2021/11/16 10:22:57;;;;;;;56.10;19.73;;;;;;;8.58;66.01;102514.63;5006344;28;20798;-71
2021/11/16 10:25:25;;;;;;;54.22;19.63;;;;;;;8.63;67.43;102520.94;5009950;28;20202;-71
2021/11/16 10:27:53;;;;;;;49.58;18.55;;;;;;;8.70;66.56;102517.81;5022250;28;20374;-71
2021/11/16 10:30:22;;;;;;;51.65;18.50;;;;;;;8.68;65.95;102514.22;5009591;28;20055;-71
2021/11/16 10:33:06;;;;;;;53.88;19.80;;;;;;;8.64;67.04;102517.50;5007839;28;20804;-71
2021/11/16 10:35:32;;;;;;;51.35;19.10;;;;;;;8.70;66.14;102516.09;5020410;28;20086;-71
2021/11/16 10:37:59;;;;;;;53.95;19.63;;;;;;;8.72;66.62;102514.44;5027150;28;20541;-70
2021/11/16 10:40:26;;;;;;;55.22;19.05;;;;;;;8.67;67.09;102517.66;5016877;28;20060;-72
2021/11/16 10:42:55;;;;;;;59.90;19.52;;;;;;;8.67;68.08;102512.44;5032242;28;20157;-70
2021/11/16 10:45:23;;;;;;;55.00;19.63;;;;;;;8.64;67.11;102518.41;5038938;28;20092;-71
2021/11/16 10:47:49;;;;;;;52.10;19.15;;;;;;;8.69;67.25;102513.41;5026690;28;20123;-70
2021/11/16 10:50:17;;;;;;;54.83;19.33;;;;;;;8.76;66.99;102508.59;5043328;28;20131;-72
2021/11/16 10:52:44;;;;;;;53.38;19.30;;;;;;;8.81;67.08;102506.19;5034331;28;20043;-70
2021/11/16 10:55:10;;;;;;;57.78;19.63;;;;;;;8.82;65.49;102500.16;5049011;28;20042;-71
2021/11/16 10:57:56;;;;;;;50.67;18.60;;;;;;;8.82;67.38;102494.97;5043385;28;20051;-70
2021/11/16 11:00:53;;;;;;;48.40;18.50;;;;;;;8.87;65.80;102483.06;5043710;28;20039;-71
2021/11/16 11:03:29;;;;;;;49.95;18.25;;;;;;;8.91;66.12;102482.38;5042815;28;20063;-70
2021/11/16 11:05:58;;;;;;;57.88;20.23;;;;;;;8.83;65.67;102479.44;5042958;28;20055;-71
2021/11/16 11:08:34;;;;;;;56.33;20.20;;;;;;;8.85;66.35;102477.78;5037656;28;20076;-71
2021/11/16 11:11:01;;;;;;;61.13;21.13;;;;;;;8.85;65.36;102471.69;5030948;28;20125;-70
2021/11/16 11:13:28;;;;;;;57.92;20.83;;;;;;;8.86;66.53;102468.28;5050011;28;20119;-70
2021/11/16 11:15:55;;;;;;;52.55;19.05;;;;;;;8.92;66.09;102465.94;5041263;28;20052;-71
2021/11/16 11:18:33;;;;;;;50.60;18.75;;;;;;;8.92;67.08;102458.16;5046215;28;20039;-70
2021/11/16 11:21:00;;;;;;;55.58;18.25;;;;;;;8.65;67.13;102454.31;5026256;28;20121;-70
2021/11/16 11:23:46;;;;;;;54.40;18.55;;;;;;;8.73;67.54;102450.31;5045883;28;20869;-70
2021/11/16 11:26:52;;;;;;;58.22;20.42;;;;;;;8.72;67.11;102440.78;5037495;28;20047;-70
2021/11/16 11:29:25;;;;;;;62.67;22.88;;;;;;;8.66;66.97;102450.88;5036430;28;20607;-71
2021/11/16 11:31:58;;;;;;;62.58;23.88;;;;;;;8.71;67.54;102447.69;5038406;28;20045;-70
2021/11/16 11:34:31;;;;;;;67.35;23.95;;;;;;;8.53;67.52;102437.31;5041645;28;20528;-70